createdAt,value
2022-09-12T00:10:00.349Z,17.00
2022-09-12T00:20:08.948Z,16.93
2022-09-12T00:30:12.603Z,16.83
2022-09-12T00:40:15.190Z,16.70
2022-09-12T00:50:27.220Z,16.58
2022-09-12T01:00:30.502Z,16.54
2022-09-12T01:10:43.511Z,16.43
2022-09-12T01:21:05.056Z,16.39
2022-09-12T01:31:40.912Z,16.29
2022-09-12T01:42:10.929Z,16.18
2022-09-12T01:52:33.105Z,16.02
2022-09-12T02:03:02.587Z,16.01
2022-09-12T02:13:15.727Z,16.15
2022-09-12T02:23:32.268Z,16.50
2022-09-12T02:34:04.871Z,16.71
2022-09-12T02:44:09.665Z,16.74
2022-09-12T02:54:15.837Z,16.78
2022-09-12T03:04:57.691Z,16.88
2022-09-12T03:15:10.922Z,17.05
2022-09-12T03:25:31.393Z,17.08
2022-09-12T03:35:33.060Z,16.98
2022-09-12T03:45:36.057Z,16.87
2022-09-12T03:55:39.397Z,16.85
2022-09-12T04:05:41.015Z,16.73
2022-09-12T04:15:42.458Z,16.67
2022-09-12T04:25:44.000Z,16.65
2022-09-12T04:35:45.540Z,16.69
2022-09-12T04:45:47.038Z,16.65
2022-09-12T04:55:48.946Z,16.78
2022-09-12T05:05:53.314Z,16.88
2022-09-12T05:15:59.966Z,16.94
2022-09-12T05:26:03.432Z,17.10
2022-09-12T05:36:09.510Z,17.39
2022-09-12T05:46:22.038Z,17.83
2022-09-12T05:56:26.195Z,17.97
2022-09-12T06:06:29.358Z,18.33
2022-09-12T06:16:32.769Z,18.35
2022-09-12T06:26:34.746Z,19.13
2022-09-12T06:36:42.100Z,19.74
2022-09-12T06:46:44.565Z,19.92
2022-09-12T06:56:46.126Z,20.24
2022-09-12T07:06:48.071Z,20.68
2022-09-12T07:16:49.495Z,21.62
2022-09-12T07:26:50.984Z,22.51
2022-09-12T07:36:52.465Z,23.17
2022-09-12T07:46:53.908Z,23.45
2022-09-12T07:56:55.616Z,24.33
2022-09-12T08:06:57.248Z,25.32
2022-09-12T08:16:58.744Z,25.26
2022-09-12T08:27:00.265Z,25.45
2022-09-12T08:37:02.056Z,27.87
2022-09-12T08:47:25.101Z,33.59
2022-09-12T08:57:26.752Z,40.50
2022-09-12T09:07:42.347Z,44.56
2022-09-12T09:17:49.948Z,47.18
2022-09-12T09:28:12.765Z,46.84
2022-09-12T09:38:54.170Z,47.34
2022-09-12T09:48:59.280Z,47.37
2022-09-12T09:59:26.499Z,47.21
2022-09-12T10:09:33.703Z,47.46
2022-09-12T10:19:40.490Z,45.70
2022-09-12T10:29:48.367Z,46.60
2022-09-12T10:39:56.224Z,46.77
2022-09-12T10:50:28.488Z,46.63
2022-09-12T11:00:34.535Z,44.34
2022-09-12T11:10:51.769Z,36.33
2022-09-12T11:21:09.650Z,31.96
2022-09-12T11:31:24.982Z,30.63
2022-09-12T11:41:37.947Z,29.79
2022-09-12T11:52:11.083Z,29.51
2022-09-12T12:02:20.738Z,28.98
2022-09-12T12:12:27.560Z,29.65
2022-09-12T12:22:29.271Z,30.16
2022-09-12T12:32:30.732Z,30.53
2022-09-12T12:42:35.165Z,30.07
2022-09-12T12:52:51.544Z,30.94
2022-09-12T13:03:08.044Z,32.17
2022-09-12T13:13:09.719Z,32.17
2022-09-12T13:23:26.702Z,31.81
2022-09-12T13:33:51.033Z,31.67
2022-09-12T13:43:52.845Z,32.82
2022-09-12T13:53:58.716Z,33.15
2022-09-12T14:04:18.846Z,32.47
2022-09-12T14:14:38.967Z,32.96
2022-09-12T14:24:40.794Z,32.61
2022-09-12T14:34:42.529Z,31.91
2022-09-12T14:44:58.188Z,31.22
2022-09-12T14:55:23.897Z,30.98
2022-09-12T15:05:27.495Z,30.67
2022-09-12T15:15:28.928Z,29.96
2022-09-12T15:25:30.424Z,29.52
2022-09-12T15:35:33.579Z,29.44
2022-09-12T15:45:35.418Z,29.16
2022-09-12T15:55:37.391Z,28.88
2022-09-12T16:05:38.815Z,28.40
2022-09-12T16:15:40.859Z,27.84
2022-09-12T16:25:42.993Z,27.07
2022-09-12T16:35:44.729Z,26.35
2022-09-12T16:45:46.851Z,25.90
2022-09-12T16:55:49.401Z,25.43
2022-09-12T17:06:01.208Z,24.94
2022-09-12T17:16:07.539Z,24.44
2022-09-12T17:26:10.565Z,23.93
2022-09-12T17:36:17.766Z,23.54
2022-09-12T17:46:19.965Z,23.15
2022-09-12T17:56:21.487Z,22.67
2022-09-12T18:06:24.079Z,22.27
2022-09-12T18:16:26.684Z,21.97
2022-09-12T18:26:29.773Z,21.77
2022-09-12T18:36:31.703Z,21.44
2022-09-12T18:46:34.889Z,21.39
2022-09-12T18:56:38.229Z,21.18
2022-09-12T19:06:42.964Z,21.02
2022-09-12T19:16:44.735Z,20.82
2022-09-12T19:26:46.293Z,20.69
2022-09-12T19:36:47.963Z,20.58
2022-09-12T19:46:49.685Z,20.49
2022-09-12T19:56:51.308Z,20.28
2022-09-12T20:06:52.782Z,20.05
2022-09-12T20:16:54.264Z,19.88
2022-09-12T20:26:57.703Z,19.76
2022-09-12T20:36:59.253Z,19.60
2022-09-12T20:47:00.786Z,19.46
2022-09-12T20:57:02.400Z,19.33
2022-09-12T21:07:03.941Z,19.22
2022-09-12T21:17:05.674Z,19.14
2022-09-12T21:27:07.429Z,19.03
2022-09-12T21:37:09.128Z,18.90
2022-09-12T21:47:10.632Z,18.81
2022-09-12T21:57:12.118Z,18.66
2022-09-12T22:07:14.996Z,18.56
2022-09-12T22:17:16.791Z,18.43
2022-09-12T22:27:18.375Z,18.29
2022-09-12T22:37:23.017Z,18.23
2022-09-12T22:47:24.867Z,18.13
2022-09-12T22:57:26.831Z,18.08
2022-09-12T23:07:28.741Z,17.99
2022-09-12T23:17:30.334Z,17.86
2022-09-12T23:27:32.850Z,17.81
2022-09-12T23:37:34.665Z,17.74
2022-09-12T23:47:36.356Z,17.67
2022-09-12T23:57:39.361Z,17.60
